Time;durP1;ratioP1;P1;durP2;ratioP2;P2;SDS_P1;SDS_P2;PMS_P1;PMS_P2;Temp;Humidity;BMP_temperature;BMP_pressure;BME280_temperature;BME280_humidity;BME280_pressure;Samples;Min_cycle;Max_cycle;Signal;HPM_P1;HPM_P2
2023/02/25 00:00:30;;;;;;;27.75;11.90;;;;;;;;;;4924448;29;20031;-84
2023/02/25 00:02:57;;;;;;;33.63;13.65;;;;;;;;;;4907459;29;20430;-83
2023/02/25 00:05:24;;;;;;;29.38;13.38;;;;;;;;;;4907414;29;20020;-83
2023/02/25 00:07:50;;;;;;;36.63;12.40;;;;;;;;;;4923868;29;20028;-83
2023/02/25 00:10:16;;;;;;;24.52;9.55;;;;;;;;;;4924298;29;20020;-83
2023/02/25 00:12:42;;;;;;;32.78;10.25;;;;;;;;;;4924301;29;20375;-83
2023/02/25 00:15:09;;;;;;;29.90;9.77;;;;;;;;;;4923959;29;20036;-83
2023/02/25 00:17:38;;;;;;;26.88;11.15;;;;;;;;;;4906761;29;20428;-83
2023/02/25 00:20:06;;;;;;;33.67;11.50;;;;;;;;;;4925655;29;20047;-85
2023/02/25 00:22:34;;;;;;;32.15;11.73;;;;;;;;;;4924078;29;20032;-85
2023/02/25 00:25:00;;;;;;;32.25;12.57;;;;;;;;;;4907273;29;20033;-85
2023/02/25 00:27:28;;;;;;;28.38;12.32;;;;;;;;;;4923799;29;20110;-85
2023/02/25 00:29:54;;;;;;;26.73;11.43;;;;;;;;;;4906311;29;20047;-86
2023/02/25 00:32:20;;;;;;;33.55;12.80;;;;;;;;;;4923748;29;20028;-86
2023/02/25 00:34:46;;;;;;;46.47;15.35;;;;;;;;;;4924097;29;20171;-85
2023/02/25 00:37:13;;;;;;;44.85;14.57;;;;;;;;;;4933341;29;20074;-85
2023/02/25 00:39:42;;;;;;;48.10;16.33;;;;;;;;;;4941912;29;20158;-85
2023/02/25 00:42:13;;;;;;;40.80;14.20;;;;;;;;;;4940644;29;20027;-78
2023/02/25 00:44:39;;;;;;;33.40;12.88;;;;;;;;;;4925390;29;20096;-82
2023/02/25 00:47:06;;;;;;;34.70;13.07;;;;;;;;;;4923041;29;20039;-82
2023/02/25 00:49:32;;;;;;;29.88;12.40;;;;;;;;;;4923509;29;20071;-82
2023/02/25 00:51:58;;;;;;;32.45;13.10;;;;;;;;;;4933392;29;20375;-82
2023/02/25 00:54:24;;;;;;;32.60;12.75;;;;;;;;;;4923317;29;20407;-82
2023/02/25 00:56:50;;;;;;;27.77;12.75;;;;;;;;;;4922812;29;20032;-82
2023/02/25 01:02:19;;;;;;;30.02;12.43;;;;;;;;;;4923136;29;20182;-82
2023/02/25 01:04:45;;;;;;;33.55;11.23;;;;;;;;;;4941659;29;20027;-82
2023/02/25 01:07:11;;;;;;;27.85;11.48;;;;;;;;;;4942105;29;20040;-83
2023/02/25 01:09:38;;;;;;;28.40;10.75;;;;;;;;;;4941829;29;20470;-83
2023/02/25 01:12:04;;;;;;;41.08;11.90;;;;;;;;;;4939970;29;20036;-82
2023/02/25 01:14:48;;;;;;;27.77;11.02;;;;;;;;;;4922979;29;20103;-82
2023/02/25 01:17:14;;;;;;;27.75;10.77;;;;;;;;;;4922884;29;20032;-82
2023/02/25 01:19:40;;;;;;;26.70;10.80;;;;;;;;;;4922937;29;20292;-83
2023/02/25 01:22:06;;;;;;;35.67;10.75;;;;;;;;;;4922824;29;20036;-82
2023/02/25 01:24:33;;;;;;;33.03;10.30;;;;;;;;;;4922763;29;20031;-82
2023/02/25 01:27:00;;;;;;;38.53;11.25;;;;;;;;;;4930456;29;20038;-82
2023/02/25 01:29:28;;;;;;;30.52;10.50;;;;;;;;;;4922454;29;20039;-82
2023/02/25 01:31:55;;;;;;;31.35;10.73;;;;;;;;;;4905403;29;20056;-83
2023/02/25 01:34:22;;;;;;;29.50;11.25;;;;;;;;;;4922661;29;20028;-82
2023/02/25 01:36:49;;;;;;;24.45;10.55;;;;;;;;;;4922549;29;20115;-83
2023/02/25 01:39:16;;;;;;;35.83;12.20;;;;;;;;;;4922462;29;20084;-84
2023/02/25 01:41:45;;;;;;;34.38;11.23;;;;;;;;;;4905813;29;20028;-83
2023/02/25 01:47:34;;;;;;;33.97;11.75;;;;;;;;;;4922536;29;20441;-83
2023/02/25 01:50:00;;;;;;;28.02;11.10;;;;;;;;;;4905384;29;20139;-83
2023/02/25 01:52:27;;;;;;;29.55;11.20;;;;;;;;;;4905064;29;20115;-83
2023/02/25 01:54:55;;;;;;;33.22;11.43;;;;;;;;;;4922502;29;20034;-83
2023/02/25 01:57:22;;;;;;;32.03;12.70;;;;;;;;;;4921936;29;20032;-83
2023/02/25 01:59:48;;;;;;;30.83;13.25;;;;;;;;;;4921341;29;20437;-83
2023/02/25 02:02:16;;;;;;;37.90;13.20;;;;;;;;;;4922398;29;20393;-83
2023/02/25 02:04:42;;;;;;;30.92;12.23;;;;;;;;;;4921890;29;20399;-83
2023/02/25 02:07:09;;;;;;;33.80;14.30;;;;;;;;;;4932555;29;20048;-82
2023/02/25 02:09:36;;;;;;;56.90;28.50;;;;;;;;;;4941089;29;20036;-83
2023/02/25 02:12:04;;;;;;;79.13;46.17;;;;;;;;;;4941133;29;20374;-82
2023/02/25 02:17:38;;;;;;;98.05;30.63;;;;;;;;;;4940838;29;20069;-82
2023/02/25 02:20:20;;;;;;;143.13;39.50;;;;;;;;;;4940892;29;20039;-83
2023/02/25 02:22:49;;;;;;;88.28;26.70;;;;;;;;;;4940549;29;20031;-82
2023/02/25 02:25:28;;;;;;;34.10;15.32;;;;;;;;;;4923811;29;20036;-82
2023/02/25 02:28:00;;;;;;;30.45;13.13;;;;;;;;;;4923787;29;20036;-83
2023/02/25 02:30:46;;;;;;;27.08;12.70;;;;;;;;;;4921059;29;20071;-82
2023/02/25 02:33:18;;;;;;;27.83;13.20;;;;;;;;;;4921592;29;20099;-82
2023/02/25 02:35:49;;;;;;;31.02;13.38;;;;;;;;;;4921735;29;20043;-82
2023/02/25 02:38:25;;;;;;;31.48;13.25;;;;;;;;;;4921735;29;20029;-82
2023/02/25 02:40:51;;;;;;;34.65;12.27;;;;;;;;;;4921332;29;20023;-82
2023/02/25 02:43:20;;;;;;;26.52;11.35;;;;;;;;;;4921685;29;20035;-84
2023/02/25 02:46:07;;;;;;;24.73;9.50;;;;;;;;;;4921688;29;20107;-84
2023/02/25 02:48:34;;;;;;;18.63;9.15;;;;;;;;;;4921571;29;20028;-83
2023/02/25 02:51:01;;;;;;;25.85;9.90;;;;;;;;;;4934556;29;20063;-84
2023/02/25 02:53:30;;;;;;;22.95;7.80;;;;;;;;;;4940812;29;20032;-84
2023/02/25 02:55:59;;;;;;;22.90;9.13;;;;;;;;;;4938551;29;20099;-84
2023/02/25 02:58:36;;;;;;;23.35;8.40;;;;;;;;;;4904200;29;20132;-84
2023/02/25 03:01:05;;;;;;;26.77;9.57;;;;;;;;;;4904549;29;20031;-84
2023/02/25 03:03:58;;;;;;;25.17;9.93;;;;;;;;;;4904522;29;20064;-84
2023/02/25 03:06:26;;;;;;;21.50;8.35;;;;;;;;;;4826808;29;20043;-84
2023/02/25 03:08:58;;;;;;;23.20;9.30;;;;;;;;;;4826885;29;20349;-84
2023/02/25 03:11:24;;;;;;;17.48;9.07;;;;;;;;;;4829666;29;20040;-84
2023/02/25 03:17:39;;;;;;;39.47;14.82;;;;;;;;;;4830653;29;20550;-84
2023/02/25 03:20:08;;;;;;;35.65;15.20;;;;;;;;;;4830339;29;20038;-84
2023/02/25 03:22:36;;;;;;;46.63;16.63;;;;;;;;;;4830423;29;20098;-84
2023/02/25 03:25:02;;;;;;;44.70;15.70;;;;;;;;;;4830171;29;20436;-84
2023/02/25 03:27:33;;;;;;;49.67;19.02;;;;;;;;;;4829943;29;20039;-84
2023/02/25 03:33:08;;;;;;;36.92;13.07;;;;;;;;;;4828803;29;20061;-85
2023/02/25 03:35:35;;;;;;;29.45;9.95;;;;;;;;;;4829942;29;20038;-84
2023/02/25 03:38:07;;;;;;;27.05;11.38;;;;;;;;;;4846128;29;20379;-83
2023/02/25 03:40:33;;;;;;;;;;;;;;;;;;4832884;29;20034;-84
2023/02/25 03:43:06;;;;;;;33.63;12.80;;;;;;;;;;4882993;29;19913;-84
2023/02/25 03:46:04;;;;;;;43.25;16.02;;;;;;;;;;4943651;29;20024;-83
2023/02/25 03:48:31;;;;;;;26.83;11.70;;;;;;;;;;4943824;29;20043;-83
2023/02/25 03:51:01;;;;;;;34.17;13.50;;;;;;;;;;4943667;29;20031;-86
2023/02/25 03:53:28;;;;;;;27.50;10.75;;;;;;;;;;4926570;29;20417;-86
2023/02/25 03:55:55;;;;;;;27.58;10.68;;;;;;;;;;4943370;29;20031;-84
2023/02/25 03:58:22;;;;;;;29.23;9.75;;;;;;;;;;4926458;29;20034;-84
2023/02/25 04:03:51;;;;;;;31.10;11.15;;;;;;;;;;4932633;29;20038;-86
2023/02/25 04:06:21;;;;;;;35.25;12.35;;;;;;;;;;4943418;29;20031;-86
2023/02/25 04:08:47;;;;;;;31.23;12.57;;;;;;;;;;4926397;29;20035;-85
2023/02/25 04:11:13;;;;;;;31.35;13.30;;;;;;;;;;4926523;29;20032;-85
2023/02/25 04:13:39;;;;;;;34.63;14.20;;;;;;;;;;4943183;29;20027;-84
2023/02/25 04:19:22;;;;;;;29.17;12.82;;;;;;;;;;4943457;29;20074;-85
2023/02/25 04:21:48;;;;;;;35.95;13.25;;;;;;;;;;4942252;29;20032;-83
2023/02/25 04:24:14;;;;;;;32.30;10.98;;;;;;;;;;4937877;29;20107;-83
2023/02/25 04:26:40;;;;;;;29.20;11.23;;;;;;;;;;4906608;29;20043;-85
2023/02/25 04:29:06;;;;;;;31.67;12.98;;;;;;;;;;4923622;29;20060;-84
2023/02/25 04:31:32;;;;;;;24.45;10.93;;;;;;;;;;4923715;29;20429;-84
2023/02/25 04:33:58;;;;;;;28.52;10.63;;;;;;;;;;4925989;29;20457;-86
2023/02/25 04:36:24;;;;;;;24.85;11.27;;;;;;;;;;4942569;29;20419;-85
2023/02/25 04:38:50;;;;;;;23.02;11.07;;;;;;;;;;4943008;29;20027;-85
2023/02/25 04:41:16;;;;;;;33.80;12.93;;;;;;;;;;4942676;29;20036;-84
2023/02/25 04:43:44;;;;;;;30.88;12.43;;;;;;;;;;4942501;29;20030;-82
2023/02/25 04:46:10;;;;;;;28.65;12.48;;;;;;;;;;4917318;29;20070;-83
2023/02/25 04:48:38;;;;;;;25.65;11.63;;;;;;;;;;4942729;29;20054;-83
2023/02/25 04:51:06;;;;;;;31.40;13.65;;;;;;;;;;4925381;29;20051;-83
2023/02/25 04:53:32;;;;;;;30.88;12.45;;;;;;;;;;4942394;29;20314;-83
2023/02/25 04:56:01;;;;;;;27.55;12.27;;;;;;;;;;4942058;29;20035;-83
2023/02/25 04:58:28;;;;;;;24.67;10.90;;;;;;;;;;4925521;29;20032;-86
2023/02/25 05:03:59;;;;;;;21.75;9.98;;;;;;;;;;4942529;29;20034;-86
2023/02/25 05:06:27;;;;;;;24.67;10.30;;;;;;;;;;4942543;29;20028;-86
2023/02/25 05:08:56;;;;;;;28.70;11.43;;;;;;;;;;4925297;29;20032;-86
2023/02/25 05:11:22;;;;;;;25.33;10.75;;;;;;;;;;4942339;29;20034;-87
2023/02/25 05:13:48;;;;;;;26.13;11.00;;;;;;;;;;4942030;29;20054;-86
2023/02/25 05:19:31;;;;;;;44.35;14.52;;;;;;;;;;4942258;29;20437;-86
2023/02/25 05:21:57;;;;;;;39.20;14.00;;;;;;;;;;4941868;29;20111;-86
2023/02/25 05:24:23;;;;;;;28.98;11.55;;;;;;;;;;4918939;29;20020;-84
2023/02/25 05:26:50;;;;;;;25.67;10.45;;;;;;;;;;4922640;29;20088;-84
2023/02/25 05:29:16;;;;;;;24.13;10.75;;;;;;;;;;4922694;29;20032;-85
2023/02/25 05:31:42;;;;;;;27.60;11.18;;;;;;;;;;4922502;29;20035;-85
2023/02/25 05:34:08;;;;;;;29.63;12.18;;;;;;;;;;4921660;29;20347;-84
2023/02/25 05:36:34;;;;;;;26.30;10.55;;;;;;;;;;4922875;29;20363;-85
2023/02/25 05:39:01;;;;;;;24.30;9.85;;;;;;;;;;4922695;29;20319;-84
2023/02/25 05:41:28;;;;;;;35.90;11.60;;;;;;;;;;4922310;29;20043;-84
2023/02/25 05:43:54;;;;;;;23.10;10.40;;;;;;;;;;4922260;29;20034;-85
2023/02/25 05:47:13;;;;;;;28.27;10.85;;;;;;;;;;4922277;29;20403;-85
2023/02/25 05:49:39;;;;;;;29.55;12.27;;;;;;;;;;4905772;29;20028;-84
2023/02/25 05:52:05;;;;;;;24.63;10.63;;;;;;;;;;4905185;29;20040;-84
2023/02/25 05:54:31;;;;;;;22.92;10.05;;;;;;;;;;4921899;29;20042;-84
2023/02/25 05:56:57;;;;;;;22.55;9.93;;;;;;;;;;4922114;29;20032;-84
2023/02/25 06:02:45;;;;;;;28.63;11.10;;;;;;;;;;4941374;29;20039;-83
2023/02/25 06:05:11;;;;;;;24.23;12.18;;;;;;;;;;4941245;29;20071;-83
2023/02/25 06:07:37;;;;;;;26.75;11.75;;;;;;;;;;4937717;29;20023;-83
2023/02/25 06:10:04;;;;;;;27.80;14.07;;;;;;;;;;4922315;29;20028;-83
2023/02/25 06:12:31;;;;;;;26.35;12.50;;;;;;;;;;4921940;29;20498;-84
2023/02/25 06:18:01;;;;;;;40.03;15.63;;;;;;;;;;4926867;29;20087;-84
2023/02/25 06:20:27;;;;;;;33.45;16.45;;;;;;;;;;4940951;29;20112;-85
2023/02/25 06:22:53;;;;;;;41.55;19.98;;;;;;;;;;4924156;29;20067;-84
2023/02/25 06:25:19;;;;;;;53.17;26.55;;;;;;;;;;4939179;29;20020;-84
2023/02/25 06:27:46;;;;;;;59.20;25.88;;;;;;;;;;4925228;29;20419;-83
2023/02/25 06:36:45;;;;;;;17.58;9.65;;;;;;;;;;4920175;29;20048;-83
2023/02/25 06:39:12;;;;;;;15.50;7.88;;;;;;;;;;4940415;29;20441;-83
2023/02/25 06:41:38;;;;;;;15.52;7.13;;;;;;;;;;4940734;29;20024;-83
2023/02/25 06:44:05;;;;;;;18.65;10.13;;;;;;;;;;4940137;29;20052;-85
2023/02/25 06:49:35;;;;;;;20.08;9.57;;;;;;;;;;4921767;29;20106;-85
2023/02/25 06:52:01;;;;;;;14.40;7.97;;;;;;;;;;4917190;29;20442;-85
2023/02/25 06:54:27;;;;;;;15.45;8.15;;;;;;;;;;4921206;29;20534;-84
2023/02/25 06:56:54;;;;;;;19.42;8.30;;;;;;;;;;4921560;29;20032;-84
2023/02/25 06:59:20;;;;;;;17.00;7.78;;;;;;;;;;4919919;29;20457;-84
2023/02/25 07:01:46;;;;;;;18.52;8.63;;;;;;;;;;4930437;29;20402;-84
2023/02/25 07:04:16;;;;;;;25.67;10.77;;;;;;;;;;4923614;29;20315;-84
2023/02/25 07:06:42;;;;;;;24.48;11.07;;;;;;;;;;4926311;29;20036;-83
2023/02/25 07:09:08;;;;;;;23.42;12.63;;;;;;;;;;4904297;29;20042;-84
2023/02/25 07:11:35;;;;;;;19.02;10.98;;;;;;;;;;4921533;29;20032;-83
2023/02/25 07:14:02;;;;;;;25.55;11.57;;;;;;;;;;4903701;29;20036;-83
2023/02/25 07:20:09;;;;;;;17.80;8.88;;;;;;;;;;4921217;29;20031;-85
2023/02/25 07:22:35;;;;;;;17.77;9.65;;;;;;;;;;4904053;29;20036;-84
2023/02/25 07:25:01;;;;;;;18.20;8.50;;;;;;;;;;4920954;29;20024;-84
2023/02/25 07:27:27;;;;;;;19.77;9.00;;;;;;;;;;4931726;29;20241;-84
2023/02/25 07:29:53;;;;;;;22.95;11.40;;;;;;;;;;4923285;29;20114;-84
2023/02/25 07:32:19;;;;;;;41.40;17.90;;;;;;;;;;4939829;29;20023;-84
2023/02/25 07:34:46;;;;;;;41.45;18.83;;;;;;;;;;4936413;29;20164;-85
2023/02/25 07:37:12;;;;;;;27.55;11.52;;;;;;;;;;4904109;29;20052;-84
2023/02/25 07:39:38;;;;;;;25.45;12.10;;;;;;;;;;4920900;29;20107;-84
2023/02/25 07:42:04;;;;;;;24.05;11.82;;;;;;;;;;4904162;29;20050;-85
2023/02/25 07:44:30;;;;;;;28.75;12.10;;;;;;;;;;4904136;29;20032;-84
2023/02/25 07:47:15;;;;;;;25.00;13.68;;;;;;;;;;4926600;29;20036;-84
2023/02/25 07:49:41;;;;;;;26.38;12.80;;;;;;;;;;4923162;29;20119;-84
2023/02/25 07:52:07;;;;;;;23.40;12.35;;;;;;;;;;4939868;29;20087;-84
2023/02/25 07:54:33;;;;;;;24.58;13.00;;;;;;;;;;4939733;29;20032;-83
2023/02/25 07:56:59;;;;;;;27.00;14.15;;;;;;;;;;4934758;29;20028;-83
2023/02/25 07:59:25;;;;;;;22.70;12.43;;;;;;;;;;4924580;29;20115;-84
2023/02/25 08:01:51;;;;;;;20.92;12.18;;;;;;;;;;4907820;29;20052;-84
2023/02/25 08:04:17;;;;;;;23.92;11.63;;;;;;;;;;4907259;29;20193;-84
2023/02/25 08:06:44;;;;;;;26.13;12.73;;;;;;;;;;4907158;29;20048;-84
2023/02/25 08:09:11;;;;;;;22.73;12.82;;;;;;;;;;4924231;29;20494;-84
2023/02/25 08:11:37;;;;;;;24.75;13.80;;;;;;;;;;4924150;29;20056;-83
2023/02/25 08:14:04;;;;;;;26.83;13.23;;;;;;;;;;4924346;29;20107;-84
2023/02/25 08:16:31;;;;;;;28.65;13.95;;;;;;;;;;4923950;29;20080;-83
2023/02/25 08:18:57;;;;;;;28.58;14.38;;;;;;;;;;4928537;29;20031;-83
2023/02/25 08:21:23;;;;;;;27.80;12.95;;;;;;;;;;4916997;29;20047;-83
2023/02/25 08:23:53;;;;;;;24.27;13.35;;;;;;;;;;4928067;29;20106;-83
2023/02/25 08:26:21;;;;;;;20.17;12.27;;;;;;;;;;4928998;29;20335;-83
2023/02/25 08:28:47;;;;;;;33.40;16.25;;;;;;;;;;4923241;29;20135;-84
2023/02/25 08:31:14;;;;;;;27.58;15.50;;;;;;;;;;4923506;29;20079;-83
2023/02/25 08:33:42;;;;;;;28.80;14.57;;;;;;;;;;4923359;29;20035;-83
2023/02/25 08:36:08;;;;;;;34.92;15.57;;;;;;;;;;4923662;29;20086;-84
2023/02/25 08:38:35;;;;;;;38.63;17.85;;;;;;;;;;4923280;29;20028;-83
2023/02/25 08:41:01;;;;;;;43.17;20.25;;;;;;;;;;4923547;29;20099;-83
2023/02/25 08:43:27;;;;;;;56.45;25.70;;;;;;;;;;4906672;29;20066;-83
2023/02/25 08:45:55;;;;;;;32.28;16.88;;;;;;;;;;4923691;29;20070;-83
2023/02/25 08:48:21;;;;;;;31.98;17.08;;;;;;;;;;4923332;29;20048;-83
2023/02/25 08:50:47;;;;;;;50.72;23.55;;;;;;;;;;4922963;29;20039;-84
2023/02/25 08:53:13;;;;;;;50.13;27.13;;;;;;;;;;4933065;29;20024;-84
2023/02/25 08:55:39;;;;;;;45.50;23.88;;;;;;;;;;4924509;29;20032;-83
2023/02/25 08:58:06;;;;;;;38.83;21.90;;;;;;;;;;4926333;29;20035;-83
2023/02/25 09:03:52;;;;;;;27.90;15.07;;;;;;;;;;4923282;29;20498;-83
2023/02/25 09:06:27;;;;;;;27.05;13.02;;;;;;;;;;4926710;29;20433;-85
2023/02/25 09:08:54;;;;;;;40.63;25.77;;;;;;;;;;4909938;29;20043;-83
2023/02/25 09:11:20;;;;;;;64.15;40.90;;;;;;;;;;4927570;29;20035;-84
2023/02/25 09:13:46;;;;;;;61.15;36.78;;;;;;;;;;4909956;29;20040;-85
2023/02/25 09:16:16;;;;;;;35.33;22.00;;;;;;;;;;4934247;29;20039;-84
2023/02/25 09:18:42;;;;;;;36.92;17.58;;;;;;;;;;4925201;29;20110;-83
2023/02/25 09:21:09;;;;;;;27.30;15.50;;;;;;;;;;4906673;29;20075;-85
2023/02/25 09:23:36;;;;;;;20.45;8.80;;;;;;;;;;4922904;29;20021;-84
2023/02/25 09:26:03;;;;;;;22.58;12.15;;;;;;;;;;4922591;29;20474;-85
2023/02/25 09:28:29;;;;;;;20.67;8.65;;;;;;;;;;4922844;29;20032;-84
2023/02/25 09:30:56;;;;;;;12.52;5.72;;;;;;;;;;4917819;29;20346;-84
2023/02/25 09:33:23;;;;;;;12.68;5.53;;;;;;;;;;4913672;29;20036;-83
2023/02/25 09:35:49;;;;;;;10.68;5.03;;;;;;;;;;4920505;29;20059;-85
2023/02/25 09:38:16;;;;;;;22.00;8.30;;;;;;;;;;4921632;29;20024;-85
2023/02/25 09:40:45;;;;;;;19.42;7.90;;;;;;;;;;4941606;29;20410;-86
2023/02/25 09:43:44;;;;;;;38.55;18.15;;;;;;;;;;4923703;29;20029;-84
2023/02/25 09:46:12;;;;;;;12.52;5.10;;;;;;;;;;4839879;29;20494;-83
2023/02/25 09:48:44;;;;;;;12.25;4.95;;;;;;;;;;4845997;29;20034;-83
2023/02/25 09:51:18;;;;;;;15.50;7.18;;;;;;;;;;4845840;29;20321;-83
2023/02/25 09:53:49;;;;;;;16.65;8.38;;;;;;;;;;4845568;29;20034;-83
2023/02/25 09:56:16;;;;;;;10.15;5.78;;;;;;;;;;4845360;29;20557;-84
2023/02/25 09:58:45;;;;;;;11.43;6.32;;;;;;;;;;4845856;29;20038;-84
2023/02/25 10:01:11;;;;;;;13.93;7.82;;;;;;;;;;4845513;29;20525;-84
2023/02/25 10:03:40;;;;;;;10.45;5.75;;;;;;;;;;4845524;29;20722;-85
2023/02/25 10:06:18;;;;;;;10.50;6.20;;;;;;;;;;4845989;29;20040;-85
2023/02/25 10:08:58;;;;;;;12.50;6.13;;;;;;;;;;4845590;29;20507;-84
2023/02/25 10:11:34;;;;;;;8.23;5.55;;;;;;;;;;4846017;29;20497;-87
2023/02/25 10:14:09;;;;;;;13.93;6.35;;;;;;;;;;4845594;29;20026;-81
2023/02/25 10:16:53;;;;;;;34.00;17.10;;;;;;;;;;4844837;29;20034;-81
2023/02/25 10:19:22;;;;;;;17.30;9.55;;;;;;;;;;4844776;29;20029;-80
2023/02/25 10:21:55;;;;;;;24.58;12.63;;;;;;;;;;4888500;29;20055;-85
2023/02/25 10:24:20;;;;;;;;;;;;;;;;;;4920767;29;20110;-83
2023/02/25 10:26:49;;;;;;;21.30;9.00;;;;;;;;;;4928858;29;19911;-85
2023/02/25 10:29:22;;;;;;;25.55;15.20;;;;;;;;;;4933489;29;20036;-85
2023/02/25 10:31:49;;;;;;;13.52;8.10;;;;;;;;;;4939393;29;20038;-85
2023/02/25 10:34:24;;;;;;;14.60;7.47;;;;;;;;;;4924656;29;20083;-85
2023/02/25 10:36:55;;;;;;;16.30;9.02;;;;;;;;;;4928175;29;20039;-85
2023/02/25 10:39:22;;;;;;;17.05;10.05;;;;;;;;;;4905021;29;20032;-85
2023/02/25 10:41:48;;;;;;;22.13;13.00;;;;;;;;;;4928427;29;20359;-85
2023/02/25 10:44:14;;;;;;;8.88;4.72;;;;;;;;;;4906587;29;20359;-85
2023/02/25 10:47:00;;;;;;;7.78;3.70;;;;;;;;;;4912012;29;20068;-85
2023/02/25 10:49:28;;;;;;;6.05;2.95;;;;;;;;;;4922351;29;20044;-83
2023/02/25 10:52:05;;;;;;;6.65;2.35;;;;;;;;;;4921888;29;20367;-82
2023/02/25 10:54:33;;;;;;;4.60;2.72;;;;;;;;;;4903896;29;20036;-82
2023/02/25 10:57:01;;;;;;;6.53;3.17;;;;;;;;;;4904081;29;20091;-82
2023/02/25 10:59:38;;;;;;;6.38;2.42;;;;;;;;;;4920816;29;20036;-82
2023/02/25 11:02:05;;;;;;;15.77;4.82;;;;;;;;;;4920639;29;20036;-82
2023/02/25 11:04:33;;;;;;;3.47;2.22;;;;;;;;;;4921968;29;20083;-82
2023/02/25 11:06:59;;;;;;;8.10;2.95;;;;;;;;;;4924679;29;20039;-81
2023/02/25 11:09:25;;;;;;;7.05;3.03;;;;;;;;;;4930550;29;20028;-82
2023/02/25 11:11:56;;;;;;;7.78;3.38;;;;;;;;;;4920790;29;20415;-82
2023/02/25 11:14:29;;;;;;;5.70;3.58;;;;;;;;;;4920701;29;20042;-82
2023/02/25 11:17:13;;;;;;;8.90;4.00;;;;;;;;;;4903989;29;20076;-82
2023/02/25 11:19:50;;;;;;;13.77;4.10;;;;;;;;;;4921397;29;20415;-80
2023/02/25 11:22:17;;;;;;;8.88;4.35;;;;;;;;;;4916791;29;20028;-82
2023/02/25 11:24:45;;;;;;;7.05;3.90;;;;;;;;;;4903715;29;20032;-82
2023/02/25 11:27:24;;;;;;;6.82;2.92;;;;;;;;;;4921637;29;20156;-82
2023/02/25 11:29:50;;;;;;;7.10;2.83;;;;;;;;;;4920728;29;20423;-82
2023/02/25 11:32:18;;;;;;;4.60;2.22;;;;;;;;;;4921561;29;20028;-82
2023/02/25 11:34:50;;;;;;;6.15;2.90;;;;;;;;;;4930890;29;20028;-82
2023/02/25 11:37:23;;;;;;;3.92;2.65;;;;;;;;;;4909671;29;20040;-82
2023/02/25 11:39:53;;;;;;;4.13;2.45;;;;;;;;;;4924197;29;20315;-82
2023/02/25 11:42:30;;;;;;;3.13;2.20;;;;;;;;;;4924263;29;20079;-82
2023/02/25 11:45:03;;;;;;;4.97;2.83;;;;;;;;;;4924171;29;20032;-83
2023/02/25 11:47:34;;;;;;;3.92;2.25;;;;;;;;;;4924274;29;20059;-85
2023/02/25 11:50:18;;;;;;;5.57;2.80;;;;;;;;;;4933288;29;20039;-82
2023/02/25 11:53:07;;;;;;;4.07;2.45;;;;;;;;;;4927794;29;20346;-82
2023/02/25 11:55:45;;;;;;;3.95;2.35;;;;;;;;;;4923189;29;20038;-82
2023/02/25 11:58:14;;;;;;;5.95;3.08;;;;;;;;;;4943148;29;20059;-81
2023/02/25 12:00:40;;;;;;;8.90;3.25;;;;;;;;;;4942900;29;20403;-81
2023/02/25 12:03:22;;;;;;;4.25;2.78;;;;;;;;;;4942874;29;20390;-81
2023/02/25 12:05:49;;;;;;;4.35;2.90;;;;;;;;;;4912355;29;20027;-81
2023/02/25 12:08:31;;;;;;;5.65;3.85;;;;;;;;;;4909970;29;20091;-81
2023/02/25 12:11:18;;;;;;;14.75;9.95;;;;;;;;;;4932170;29;20063;-81
2023/02/25 12:13:53;;;;;;;25.48;17.40;;;;;;;;;;4923980;29;20028;-80
2023/02/25 12:16:34;;;;;;;36.08;21.27;;;;;;;;;;4923703;29;20031;-80
2023/02/25 12:19:00;;;;;;;116.10;68.55;;;;;;;;;;4923086;29;20036;-81
2023/02/25 12:21:26;;;;;;;92.30;52.78;;;;;;;;;;4940941;29;20023;-81
2023/02/25 12:23:52;;;;;;;91.40;51.63;;;;;;;;;;4925945;29;20068;-81
2023/02/25 12:26:21;;;;;;;108.32;63.90;;;;;;;;;;4923412;29;20087;-81
2023/02/25 12:29:06;;;;;;;134.80;56.40;;;;;;;;;;4906515;29;20032;-80
2023/02/25 12:31:45;;;;;;;44.03;21.05;;;;;;;;;;4908076;29;20027;-80
2023/02/25 12:34:32;;;;;;;94.18;43.05;;;;;;;;;;4939689;29;20034;-81
2023/02/25 12:37:01;;;;;;;106.82;46.40;;;;;;;;;;4923033;29;20052;-81
2023/02/25 12:39:33;;;;;;;97.68;42.88;;;;;;;;;;4923763;29;20107;-81
2023/02/25 12:42:11;;;;;;;82.57;39.13;;;;;;;;;;4906051;29;20418;-81
2023/02/25 12:44:56;;;;;;;93.47;46.78;;;;;;;;;;4924478;29;20025;-81
2023/02/25 12:47:29;;;;;;;64.72;30.23;;;;;;;;;;4929056;29;20073;-81
2023/02/25 12:49:55;;;;;;;61.17;29.45;;;;;;;;;;4923180;29;20323;-81
2023/02/25 12:52:34;;;;;;;83.72;37.22;;;;;;;;;;4929991;29;20042;-81
2023/02/25 12:55:06;;;;;;;59.80;27.92;;;;;;;;;;4920735;29;20482;-81
2023/02/25 12:57:35;;;;;;;90.82;37.92;;;;;;;;;;4935977;29;20036;-81
2023/02/25 13:00:15;;;;;;;89.85;37.97;;;;;;;;;;4926921;29;20039;-81
2023/02/25 13:02:50;;;;;;;142.88;59.75;;;;;;;;;;4941654;29;20403;-81
2023/02/25 13:05:34;;;;;;;86.13;38.67;;;;;;;;;;4942043;29;20032;-81
2023/02/25 13:08:00;;;;;;;126.25;53.28;;;;;;;;;;4930536;29;20028;-81
2023/02/25 13:10:34;;;;;;;61.20;26.23;;;;;;;;;;4922654;29;20040;-81
2023/02/25 13:13:19;;;;;;;131.00;60.28;;;;;;;;;;4906086;29;20032;-81
2023/02/25 13:16:03;;;;;;;92.05;43.08;;;;;;;;;;4928929;29;20024;-81
2023/02/25 13:18:38;;;;;;;107.97;46.67;;;;;;;;;;4922721;29;20048;-82
2023/02/25 13:21:16;;;;;;;46.03;23.05;;;;;;;;;;4923281;29;20116;-82
2023/02/25 13:23:56;;;;;;;150.13;68.13;;;;;;;;;;4923625;29;20043;-81
2023/02/25 13:26:41;;;;;;;154.40;68.53;;;;;;;;;;4922067;29;20032;-84
2023/02/25 13:29:30;;;;;;;116.18;52.22;;;;;;;;;;4929321;29;20331;-84
2023/02/25 13:32:15;;;;;;;122.90;52.70;;;;;;;;;;4846302;29;20333;-84
2023/02/25 13:35:00;;;;;;;68.22;27.08;;;;;;;;;;4830857;29;20038;-85
2023/02/25 13:37:44;;;;;;;82.88;27.98;;;;;;;;;;4846231;29;20137;-83
2023/02/25 13:40:13;;;;;;;70.15;21.63;;;;;;;;;;4831116;29;20026;-84
2023/02/25 13:43:00;;;;;;;71.13;22.40;;;;;;;;;;4830797;29;20038;-85
2023/02/25 13:45:44;;;;;;;97.88;30.73;;;;;;;;;;4846114;29;20026;-85
2023/02/25 13:51:14;;;;;;;95.28;29.65;;;;;;;;;;4829056;29;20073;-86
2023/02/25 13:54:05;;;;;;;83.03;28.23;;;;;;;;;;4828109;29;20110;-85
2023/02/25 13:56:50;;;;;;;49.10;16.85;;;;;;;;;;4827317;29;20117;-85
2023/02/25 13:59:21;;;;;;;125.47;40.30;;;;;;;;;;4812581;29;20084;-85
2023/02/25 14:01:55;;;;;;;61.92;21.90;;;;;;;;;;4827831;29;20061;-83
2023/02/25 14:04:34;;;;;;;23.88;8.63;;;;;;;;;;4811933;29;20030;-85
2023/02/25 14:07:21;;;;;;;36.95;12.20;;;;;;;;;;4827692;29;20156;-85
2023/02/25 14:09:50;;;;;;;33.55;10.68;;;;;;;;;;4898021;29;20043;-85
2023/02/25 14:12:25;;;;;;;62.45;17.33;;;;;;;;;;4924332;29;20031;-85
2023/02/25 14:15:09;;;;;;;44.63;13.75;;;;;;;;;;4941281;29;20046;-85
2023/02/25 14:17:41;;;;;;;28.67;9.35;;;;;;;;;;4924028;29;20028;-84
2023/02/25 14:20:18;;;;;;;52.83;17.13;;;;;;;;;;4924299;29;20242;-85
2023/02/25 14:22:56;;;;;;;77.75;24.23;;;;;;;;;;4940513;29;20031;-85
2023/02/25 14:25:25;;;;;;;58.08;19.27;;;;;;;;;;4941167;29;20027;-86
2023/02/25 14:27:59;;;;;;;83.40;27.67;;;;;;;;;;4923857;29;20027;-85
2023/02/25 14:30:34;;;;;;;85.47;27.92;;;;;;;;;;4906248;29;20036;-84
2023/02/25 14:36:15;;;;;;;334.17;116.78;;;;;;;;;;4921669;29;20429;-84
2023/02/25 14:38:58;;;;;;;153.48;55.90;;;;;;;;;;4920269;29;20040;-85
2023/02/25 14:41:32;;;;;;;108.60;39.75;;;;;;;;;;4921719;29;20060;-84
2023/02/25 14:44:06;;;;;;;23.17;10.70;;;;;;;;;;4904936;29;20028;-85
2023/02/25 14:46:32;;;;;;;74.90;28.67;;;;;;;;;;4921606;29;20363;-85
2023/02/25 14:49:17;;;;;;;112.47;41.47;;;;;;;;;;4904334;29;20067;-85
2023/02/25 14:52:12;;;;;;;118.05;43.70;;;;;;;;;;4904697;29;20027;-85
2023/02/25 14:54:54;;;;;;;304.15;119.30;;;;;;;;;;4921675;29;20039;-85
2023/02/25 14:57:20;;;;;;;127.60;51.08;;;;;;;;;;4910720;29;20038;-85
2023/02/25 15:00:17;;;;;;;373.17;148.90;;;;;;;;;;4920572;29;20032;-85
2023/02/25 15:03:17;;;;;;;290.38;105.47;;;;;;;;;;4845100;29;20046;-85
2023/02/25 15:05:49;;;;;;;252.82;93.72;;;;;;;;;;4839891;29;20041;-84
2023/02/25 15:08:24;;;;;;;226.20;81.78;;;;;;;;;;4862912;29;20040;-83
2023/02/25 15:11:05;;;;;;;190.20;70.95;;;;;;;;;;4844472;29;20041;-84
2023/02/25 15:13:34;;;;;;;75.90;30.20;;;;;;;;;;4844794;29;20433;-84
2023/02/25 15:16:00;;;;;;;182.23;72.45;;;;;;;;;;4844875;29;20049;-85
2023/02/25 15:18:32;;;;;;;190.20;77.10;;;;;;;;;;4845140;29;20038;-85
2023/02/25 15:20:58;;;;;;;272.77;113.38;;;;;;;;;;4831717;29;20029;-83
2023/02/25 15:23:41;;;;;;;93.22;38.35;;;;;;;;;;4861535;29;20429;-85
2023/02/25 15:26:20;;;;;;;113.75;41.00;;;;;;;;;;4845012;29;20132;-84
2023/02/25 15:28:47;;;;;;;12.25;6.18;;;;;;;;;;4851627;29;20048;-84
2023/02/25 15:31:30;;;;;;;64.97;25.73;;;;;;;;;;4862434;29;20022;-85
2023/02/25 15:34:14;;;;;;;162.13;62.67;;;;;;;;;;4849666;29;20041;-85
2023/02/25 15:36:42;;;;;;;442.13;178.23;;;;;;;;;;4851602;29;20042;-84
2023/02/25 15:39:11;;;;;;;68.93;27.80;;;;;;;;;;4868693;29;20036;-84